Time,TemperatureF,DewpointF,PressureIn,WindDirection,WindDirectionDegrees,WindSpeedMPH,WindSpeedGustMPH,Humidity,HourlyPrecipIn,Conditions,Clouds,dailyrainin,SoftwareType,DateUTC
2013-11-20 00:02:00,30.4,15.3,30.19,North,-999,-999.0,-999.0,53,0.00,,,0.00,meteohub,2013-11-20 05:02:00,
2013-11-20 00:07:00,30.4,15.3,30.19,North,-999,-999.0,-999.0,53,0.00,,,0.00,meteohub,2013-11-20 05:07:00,
2013-11-20 00:12:00,30.4,15.3,30.22,North,-999,-999.0,-999.0,53,0.00,,,0.00,meteohub,2013-11-20 05:12:00,
2013-11-20 00:17:00,30.2,15.1,30.22,SE,145,3.0,3.0,53,0.00,,,0.00,meteohub,2013-11-20 05:17:00,
2013-11-20 00:27:00,30.2,15.1,30.19,North,-999,-999.0,3.0,53,0.00,,,0.00,meteohub,2013-11-20 05:27:00,
2013-11-20 00:32:00,30.2,15.1,30.19,North,-999,-999.0,-999.0,53,0.00,,,0.00,meteohub,2013-11-20 05:32:00,
2013-11-20 00:37:00,30.2,15.1,30.19,North,-999,-999.0,-999.0,53,0.00,,,0.00,meteohub,2013-11-20 05:37:00,
2013-11-20 00:42:00,30.2,15.6,30.22,North,-999,-999.0,-999.0,54,0.00,,,0.00,meteohub,2013-11-20 05:42:00,
2013-11-20 00:47:00,29.8,15.3,30.22,North,-999,-999.0,-999.0,54,0.00,,,0.00,meteohub,2013-11-20 05:47:00,
2013-11-20 00:52:00,29.7,15.4,30.22,North,-999,-999.0,-999.0,55,0.00,,,0.00,meteohub,2013-11-20 05:52:00,
2013-11-20 00:57:00,29.7,15.4,30.19,North,-999,-999.0,-999.0,55,0.00,,,0.00,meteohub,2013-11-20 05:57:00,
2013-11-20 01:02:00,29.5,15.3,30.19,North,-999,-999.0,-999.0,55,0.00,,,0.00,meteohub,2013-11-20 06:02:00,
2013-11-20 01:07:00,29.5,15.8,30.19,NE,55,3.0,-999.0,56,0.00,,,0.00,meteohub,2013-11-20 06:07:00,
2013-11-20 01:12:00,29.7,16.0,30.19,NE,55,3.0,3.0,56,0.00,,,0.00,meteohub,2013-11-20 06:12:00,
2013-11-20 01:17:00,29.7,16.0,30.19,North,-999,-999.0,3.0,56,0.00,,,0.00,meteohub,2013-11-20 06:17:00,
2013-11-20 01:22:00,30.0,15.8,30.19,North,-999,-999.0,3.0,55,0.00,,,0.00,meteohub,2013-11-20 06:22:00,
2013-11-20 01:27:00,30.0,15.8,30.19,North,-999,-999.0,-999.0,55,0.00,,,0.00,meteohub,2013-11-20 06:27:00,
2013-11-20 01:32:00,30.0,15.8,30.19,North,-999,-999.0,-999.0,55,0.00,,,0.00,meteohub,2013-11-20 06:32:00,
2013-11-20 01:37:00,30.0,15.8,30.19,North,-999,-999.0,-999.0,55,0.00,,,0.00,meteohub,2013-11-20 06:37:00,
2013-11-20 01:42:00,30.0,15.8,30.19,North,-999,-999.0,-999.0,55,0.00,,,0.00,meteohub,2013-11-20 06:42:00,
2013-11-20 01:47:00,30.0,15.8,30.19,North,-999,-999.0,-999.0,55,0.00,,,0.00,meteohub,2013-11-20 06:47:00,
2013-11-20 01:52:00,30.0,15.8,30.19,North,-999,-999.0,-999.0,55,0.00,,,0.00,meteohub,2013-11-20 06:52:00,
2013-11-20 01:57:00,30.0,15.8,30.19,North,-999,-999.0,-999.0,55,0.00,,,0.00,meteohub,2013-11-20 06:57:00,
2013-11-20 02:02:00,29.8,15.6,30.19,North,-999,-999.0,-999.0,55,0.00,,,0.00,meteohub,2013-11-20 07:02:00,
2013-11-20 02:07:00,30.2,16.0,30.19,North,-999,-999.0,-999.0,55,0.00,,,0.00,meteohub,2013-11-20 07:07:00,
2013-11-20 02:12:00,30.2,15.6,30.22,North,-999,-999.0,-999.0,54,0.00,,,0.00,meteohub,2013-11-20 07:12:00,
2013-11-20 02:17:00,30.2,15.6,30.22,North,-999,-999.0,-999.0,54,0.00,,,0.00,meteohub,2013-11-20 07:17:00,
2013-11-20 02:22:00,30.2,15.6,30.22,North,-999,-999.0,-999.0,54,0.00,,,0.00,meteohub,2013-11-20 07:22:00,
2013-11-20 02:27:00,30.0,15.4,30.22,North,-999,-999.0,-999.0,54,0.00,,,0.00,meteohub,2013-11-20 07:27:00,
2013-11-20 02:32:00,29.8,15.3,30.22,North,-999,-999.0,-999.0,54,0.00,,,0.00,meteohub,2013-11-20 07:32:00,
2013-11-20 02:37:00,30.0,15.4,30.22,North,-999,-999.0,-999.0,54,0.00,,,0.00,meteohub,2013-11-20 07:37:00,
2013-11-20 02:42:00,30.0,15.4,30.22,North,-999,-999.0,-999.0,54,0.00,,,0.00,meteohub,2013-11-20 07:42:00,
2013-11-20 02:47:00,30.2,15.6,30.22,SSW,212,3.0,-999.0,54,0.00,,,0.00,meteohub,2013-11-20 07:47:00,
2013-11-20 02:52:00,30.0,15.4,30.22,ENE,78,0.0,3.0,54,0.00,,,0.00,meteohub,2013-11-20 07:52:00,
2013-11-20 02:57:00,30.0,15.8,30.22,North,-999,-999.0,3.0,55,0.00,,,0.00,meteohub,2013-11-20 07:57:00,
2013-11-20 03:02:00,29.8,15.6,30.22,North,-999,-999.0,0.0,55,0.00,,,0.00,meteohub,2013-11-20 08:02:00,
2013-11-20 03:07:00,29.8,15.6,30.22,North,-999,-999.0,-999.0,55,0.00,,,0.00,meteohub,2013-11-20 08:07:00,
2013-11-20 03:12:00,30.0,15.4,30.22,North,-999,-999.0,-999.0,54,0.00,,,0.00,meteohub,2013-11-20 08:12:00,
2013-11-20 03:17:00,29.8,15.3,30.22,East,100,5.0,-999.0,54,0.00,,,0.00,meteohub,2013-11-20 08:17:00,
2013-11-20 03:22:00,29.8,15.3,30.22,East,100,5.0,5.0,54,0.00,,,0.00,meteohub,2013-11-20 08:22:00,
2013-11-20 03:27:00,29.8,15.3,30.25,North,-999,-999.0,5.0,54,0.00,,,0.00,meteohub,2013-11-20 08:27:00,
2013-11-20 03:32:00,29.7,15.1,30.25,North,-999,-999.0,5.0,54,0.00,,,0.00,meteohub,2013-11-20 08:32:00,
2013-11-20 03:37:00,29.8,15.3,30.25,North,-999,-999.0,-999.0,54,0.00,,,0.00,meteohub,2013-11-20 08:37:00,
2013-11-20 03:42:00,29.7,15.1,30.22,North,-999,-999.0,-999.0,54,0.00,,,0.00,meteohub,2013-11-20 08:42:00,
2013-11-20 03:47:00,29.5,14.9,30.22,North,-999,-999.0,-999.0,54,0.00,,,0.00,meteohub,2013-11-20 08:47:00,
2013-11-20 03:52:00,29.5,14.9,30.22,North,-999,-999.0,-999.0,54,0.00,,,0.00,meteohub,2013-11-20 08:52:00,
2013-11-20 03:57:00,29.5,14.9,30.22,North,-999,-999.0,-999.0,54,0.00,,,0.00,meteohub,2013-11-20 08:57:00,
2013-11-20 04:02:00,29.3,14.7,30.22,North,-999,-999.0,-999.0,54,0.00,,,0.00,meteohub,2013-11-20 09:02:00,
2013-11-20 04:07:00,29.5,14.9,30.22,North,-999,-999.0,-999.0,54,0.00,,,0.00,meteohub,2013-11-20 09:07:00,
2013-11-20 04:12:00,29.7,15.1,30.22,North,-999,-999.0,-999.0,54,0.00,,,0.00,meteohub,2013-11-20 09:12:00,
2013-11-20 04:17:00,29.7,15.1,30.22,North,-999,-999.0,-999.0,54,0.00,,,0.00,meteohub,2013-11-20 09:17:00,
2013-11-20 04:22:00,29.8,15.3,30.22,North,-999,-999.0,-999.0,54,0.00,,,0.00,meteohub,2013-11-20 09:22:00,
2013-11-20 04:27:00,29.8,15.3,30.22,ENE,78,4.0,-999.0,54,0.00,,,0.00,meteohub,2013-11-20 09:27:00,
2013-11-20 04:32:00,29.8,15.3,30.22,North,-999,-999.0,4.0,54,0.00,,,0.00,meteohub,2013-11-20 09:32:00,
2013-11-20 04:37:00,29.8,15.3,30.22,North,-999,-999.0,4.0,54,0.00,,,0.00,meteohub,2013-11-20 09:37:00,
2013-11-20 04:42:00,30.0,15.4,30.19,North,-999,-999.0,-999.0,54,0.00,,,0.00,meteohub,2013-11-20 09:42:00,
2013-11-20 04:47:00,29.8,15.3,30.19,North,-999,-999.0,-999.0,54,0.00,,,0.00,meteohub,2013-11-20 09:47:00,
2013-11-20 04:52:00,29.8,15.3,30.19,North,-999,-999.0,-999.0,54,0.00,,,0.00,meteohub,2013-11-20 09:52:00,
2013-11-20 04:57:00,29.7,15.1,30.19,North,-999,-999.0,-999.0,54,0.00,,,0.00,meteohub,2013-11-20 09:57:00,
2013-11-20 05:02:00,29.8,15.3,30.19,North,-999,-999.0,-999.0,54,0.00,,,0.00,meteohub,2013-11-20 10:02:00,
2013-11-20 05:07:00,29.5,14.9,30.19,North,-999,-999.0,-999.0,54,0.00,,,0.00,meteohub,2013-11-20 10:07:00,
2013-11-20 05:12:00,29.3,15.1,30.19,North,-999,-999.0,-999.0,55,0.00,,,0.00,meteohub,2013-11-20 10:12:00,
2013-11-20 05:17:00,29.5,15.3,30.19,North,-999,-999.0,-999.0,55,0.00,,,0.00,meteohub,2013-11-20 10:17:00,
2013-11-20 05:22:00,29.1,15.1,30.19,North,-999,-999.0,-999.0,55,0.00,,,0.00,meteohub,2013-11-20 10:22:00,
2013-11-20 05:27:00,29.5,15.3,30.22,North,-999,-999.0,-999.0,55,0.00,,,0.00,meteohub,2013-11-20 10:27:00,
2013-11-20 05:32:00,29.3,15.6,30.22,North,-999,-999.0,-999.0,56,0.00,,,0.00,meteohub,2013-11-20 10:32:00,
2013-11-20 05:37:00,29.3,15.1,30.22,North,-999,-999.0,-999.0,55,0.00,,,0.00,meteohub,2013-11-20 10:37:00,
2013-11-20 05:42:00,29.3,15.1,30.22,North,-999,-999.0,-999.0,55,0.00,,,0.00,meteohub,2013-11-20 10:42:00,
2013-11-20 05:47:00,29.1,15.4,30.22,SSW,212,0.0,-999.0,56,0.00,,,0.00,meteohub,2013-11-20 10:47:00,
2013-11-20 05:52:00,29.1,15.1,30.22,North,-999,-999.0,0.0,55,0.00,,,0.00,meteohub,2013-11-20 10:52:00,
2013-11-20 05:57:00,29.3,15.1,30.25,North,-999,-999.0,0.0,55,0.00,,,0.00,meteohub,2013-11-20 10:57:00,
2013-11-20 06:02:00,28.9,14.9,30.25,North,-999,-999.0,-999.0,55,0.00,,,0.00,meteohub,2013-11-20 11:02:00,
2013-11-20 06:07:00,28.9,14.9,30.25,North,-999,-999.0,-999.0,55,0.00,,,0.00,meteohub,2013-11-20 11:07:00,
2013-11-20 06:12:00,28.9,14.9,30.28,North,-999,-999.0,-999.0,55,0.00,,,0.00,meteohub,2013-11-20 11:12:00,
2013-11-20 06:17:00,28.8,14.7,30.28,North,-999,-999.0,-999.0,55,0.00,,,0.00,meteohub,2013-11-20 11:17:00,
2013-11-20 06:22:00,28.8,15.1,30.28,North,-999,-999.0,-999.0,56,0.00,,,0.00,meteohub,2013-11-20 11:22:00,
2013-11-20 06:27:00,28.6,14.9,30.28,North,-999,-999.0,-999.0,56,0.00,,,0.00,meteohub,2013-11-20 11:27:00,
2013-11-20 06:32:00,28.6,14.9,30.28,North,-999,-999.0,-999.0,56,0.00,,,0.00,meteohub,2013-11-20 11:32:00,
2013-11-20 06:37:00,28.6,14.5,30.28,North,-999,-999.0,-999.0,55,0.00,,,0.00,meteohub,2013-11-20 11:37:00,
2013-11-20 06:42:00,28.6,14.5,30.28,North,-999,-999.0,-999.0,55,0.00,,,0.00,meteohub,2013-11-20 11:42:00,
2013-11-20 06:47:00,28.6,14.5,30.28,North,-999,-999.0,-999.0,55,0.00,,,0.00,meteohub,2013-11-20 11:47:00,
2013-11-20 06:52:00,28.4,14.4,30.28,North,-999,-999.0,-999.0,55,0.00,,,0.00,meteohub,2013-11-20 11:52:00,
2013-11-20 06:57:00,28.4,14.4,30.28,North,-999,-999.0,-999.0,55,0.00,,,0.00,meteohub,2013-11-20 11:57:00,
2013-11-20 07:02:00,28.4,14.4,30.28,ENE,78,7.0,7.0,55,0.00,,,0.00,meteohub,2013-11-20 12:02:00,
2013-11-20 07:07:00,28.4,14.4,30.28,North,-999,-999.0,7.0,55,0.00,,,0.00,meteohub,2013-11-20 12:07:00,
2013-11-20 07:12:00,28.2,14.2,30.28,North,-999,-999.0,7.0,55,0.00,,,0.00,meteohub,2013-11-20 12:12:00,
2013-11-20 07:17:00,27.9,14.2,30.28,North,-999,-999.0,-999.0,56,0.00,,,0.00,meteohub,2013-11-20 12:17:00,
2013-11-20 07:22:00,27.5,13.8,30.28,North,-999,-999.0,-999.0,56,0.00,,,0.00,meteohub,2013-11-20 12:22:00,
2013-11-20 07:27:00,27.3,13.6,30.28,North,-999,-999.0,-999.0,56,0.00,,,0.00,meteohub,2013-11-20 12:27:00,
2013-11-20 07:32:00,27.1,14.0,30.28,North,-999,-999.0,-999.0,57,0.00,,,0.00,meteohub,2013-11-20 12:32:00,
2013-11-20 07:37:00,27.3,14.2,30.28,North,-999,-999.0,-999.0,57,0.00,,,0.00,meteohub,2013-11-20 12:37:00,
2013-11-20 07:42:00,27.1,14.0,30.28,North,-999,-999.0,-999.0,57,0.00,,,0.00,meteohub,2013-11-20 12:42:00,
2013-11-20 07:47:00,26.4,13.6,30.28,North,-999,-999.0,-999.0,58,0.00,,,0.00,meteohub,2013-11-20 12:47:00,
2013-11-20 07:52:00,26.4,13.6,30.28,North,-999,-999.0,-999.0,58,0.00,,,0.00,meteohub,2013-11-20 12:52:00,
2013-11-20 07:57:00,26.4,14.0,30.28,North,-999,-999.0,-999.0,59,0.00,,,0.00,meteohub,2013-11-20 12:57:00,
2013-11-20 08:02:00,26.4,14.0,30.28,North,-999,-999.0,-999.0,59,0.00,,,0.00,meteohub,2013-11-20 13:02:00,
2013-11-20 08:07:00,26.8,14.4,30.28,North,-999,-999.0,-999.0,59,0.00,,,0.00,meteohub,2013-11-20 13:07:00,
2013-11-20 08:12:00,27.0,14.5,30.28,North,-999,-999.0,-999.0,59,0.00,,,0.00,meteohub,2013-11-20 13:12:00,
2013-11-20 08:17:00,26.6,14.2,30.28,North,-999,-999.0,-999.0,59,0.00,,,0.00,meteohub,2013-11-20 13:17:00,
2013-11-20 08:22:00,26.4,14.4,30.28,North,-999,-999.0,-999.0,60,0.00,,,0.00,meteohub,2013-11-20 13:22:00,
2013-11-20 08:27:00,26.4,14.4,30.28,NNW,348,0.0,-999.0,60,0.00,,,0.00,meteohub,2013-11-20 13:27:00,
2013-11-20 08:32:00,26.6,14.5,30.28,NNW,348,0.0,0.0,60,0.00,,,0.00,meteohub,2013-11-20 13:32:00,
2013-11-20 08:37:00,26.6,14.5,30.28,North,-999,-999.0,0.0,60,0.00,,,0.00,meteohub,2013-11-20 13:37:00,
2013-11-20 08:42:00,27.0,14.9,30.28,North,-999,-999.0,0.0,60,0.00,,,0.00,meteohub,2013-11-20 13:42:00,
2013-11-20 08:47:00,27.1,14.7,30.31,North,-999,-999.0,-999.0,59,0.00,,,0.00,meteohub,2013-11-20 13:47:00,
2013-11-20 08:52:00,27.5,15.1,30.31,North,-999,-999.0,-999.0,59,0.00,,,0.00,meteohub,2013-11-20 13:52:00,
2013-11-20 08:57:00,27.9,15.1,30.31,North,-999,-999.0,-999.0,58,0.00,,,0.00,meteohub,2013-11-20 13:57:00,
2013-11-20 09:02:00,28.0,15.3,30.31,North,-999,-999.0,-999.0,58,0.00,,,0.00,meteohub,2013-11-20 14:02:00,
2013-11-20 09:07:00,28.4,15.1,30.31,North,-999,-999.0,-999.0,57,0.00,,,0.00,meteohub,2013-11-20 14:07:00,
2013-11-20 09:12:00,28.8,15.4,30.31,North,-999,-999.0,-999.0,57,0.00,,,0.00,meteohub,2013-11-20 14:12:00,
2013-11-20 09:17:00,28.9,15.6,30.31,North,-999,-999.0,-999.0,57,0.00,,,0.00,meteohub,2013-11-20 14:17:00,
2013-11-20 09:22:00,29.3,15.6,30.31,North,-999,-999.0,-999.0,56,0.00,,,0.00,meteohub,2013-11-20 14:22:00,
2013-11-20 09:27:00,29.5,15.8,30.31,North,-999,-999.0,-999.0,56,0.00,,,0.00,meteohub,2013-11-20 14:27:00,
2013-11-20 09:32:00,30.2,16.3,30.31,East,100,7.0,-999.0,56,0.00,,,0.00,meteohub,2013-11-20 14:32:00,
2013-11-20 09:37:00,30.7,16.5,30.31,East,100,7.0,7.0,55,0.00,,,0.00,meteohub,2013-11-20 14:37:00,
2013-11-20 09:42:00,31.1,16.9,30.31,North,-999,-999.0,7.0,55,0.00,,,0.00,meteohub,2013-11-20 14:42:00,
2013-11-20 09:47:00,31.1,16.9,30.31,North,-999,-999.0,7.0,55,0.00,,,0.00,meteohub,2013-11-20 14:47:00,
2013-11-20 09:52:00,31.6,16.9,30.31,North,-999,-999.0,-999.0,54,0.00,,,0.00,meteohub,2013-11-20 14:52:00,
2013-11-20 09:57:00,32.0,17.2,30.31,North,-999,-999.0,-999.0,54,0.00,,,0.00,meteohub,2013-11-20 14:57:00,
2013-11-20 10:02:00,32.7,17.6,30.31,North,-999,-999.0,-999.0,53,0.00,,,0.00,meteohub,2013-11-20 15:02:00,
2013-11-20 10:07:00,33.1,17.4,30.31,North,-999,-999.0,-999.0,52,0.00,,,0.00,meteohub,2013-11-20 15:07:00,
2013-11-20 10:12:00,33.3,17.6,30.31,North,-999,-999.0,-999.0,52,0.00,,,0.00,meteohub,2013-11-20 15:12:00,
2013-11-20 10:17:00,33.4,17.8,30.31,North,-999,-999.0,-999.0,52,0.00,,,0.00,meteohub,2013-11-20 15:17:00,
2013-11-20 10:22:00,34.0,17.8,30.31,North,-999,-999.0,-999.0,51,0.00,,,0.00,meteohub,2013-11-20 15:22:00,
2013-11-20 10:27:00,34.2,18.0,30.31,North,-999,-999.0,-999.0,51,0.00,,,0.00,meteohub,2013-11-20 15:27:00,
2013-11-20 10:32:00,34.3,18.1,30.31,North,-999,-999.0,-999.0,51,0.00,,,0.00,meteohub,2013-11-20 15:32:00,
2013-11-20 10:37:00,35.1,18.9,30.31,North,-999,-999.0,-999.0,51,0.00,,,0.00,meteohub,2013-11-20 15:37:00,
2013-11-20 10:42:00,35.2,19.0,30.31,North,-999,-999.0,-999.0,51,0.00,,,0.00,meteohub,2013-11-20 15:42:00,
2013-11-20 10:47:00,35.6,18.3,30.31,North,-999,-999.0,-999.0,49,0.00,,,0.00,meteohub,2013-11-20 15:47:00,
2013-11-20 10:52:00,36.0,18.7,30.31,North,-999,-999.0,-999.0,49,0.00,,,0.00,meteohub,2013-11-20 15:52:00,
2013-11-20 10:57:00,36.3,18.5,30.28,WSW,258,3.0,3.0,48,0.00,,,0.00,meteohub,2013-11-20 15:57:00,
2013-11-20 11:02:00,36.7,18.3,30.28,WSW,258,3.0,3.0,47,0.00,,,0.00,meteohub,2013-11-20 16:02:00,
2013-11-20 11:07:00,36.9,18.1,30.28,North,-999,-999.0,3.0,46,0.00,,,0.00,meteohub,2013-11-20 16:07:00,
2013-11-20 11:12:00,37.0,18.7,30.28,North,-999,-999.0,3.0,47,0.00,,,0.00,meteohub,2013-11-20 16:12:00,
2013-11-20 11:17:00,37.6,18.7,30.28,NNW,348,5.0,5.0,46,0.00,,,0.00,meteohub,2013-11-20 16:17:00,
2013-11-20 11:22:00,37.9,18.5,30.28,North,-999,-999.0,5.0,45,0.00,,,0.00,meteohub,2013-11-20 16:22:00,
2013-11-20 11:27:00,37.9,18.0,30.28,North,-999,-999.0,5.0,44,0.00,,,0.00,meteohub,2013-11-20 16:27:00,
2013-11-20 11:32:00,38.3,18.3,30.28,North,-999,-999.0,-999.0,44,0.00,,,0.00,meteohub,2013-11-20 16:32:00,
2013-11-20 11:37:00,38.7,18.7,30.28,North,-999,-999.0,-999.0,44,0.00,,,0.00,meteohub,2013-11-20 16:37:00,
2013-11-20 11:42:00,38.7,18.1,30.28,ESE,122,2.0,-999.0,43,0.00,,,0.00,meteohub,2013-11-20 16:42:00,
2013-11-20 11:47:00,39.6,19.0,30.28,ESE,122,2.0,2.0,43,0.00,,,0.00,meteohub,2013-11-20 16:47:00,
2013-11-20 11:52:00,39.6,19.0,30.28,North,-999,-999.0,2.0,43,0.00,,,0.00,meteohub,2013-11-20 16:52:00,
2013-11-20 11:57:00,39.7,18.5,30.28,North,-999,-999.0,2.0,42,0.00,,,0.00,meteohub,2013-11-20 16:57:00,
2013-11-20 12:02:00,39.7,18.5,30.28,North,-999,-999.0,-999.0,42,0.00,,,0.00,meteohub,2013-11-20 17:02:00,
2013-11-20 12:07:00,39.7,18.5,30.28,North,10,12.0,12.0,42,0.00,,,0.00,meteohub,2013-11-20 17:07:00,
2013-11-20 12:12:00,40.3,19.0,30.28,North,-999,-999.0,12.0,42,0.00,,,0.00,meteohub,2013-11-20 17:12:00,
2013-11-20 12:17:00,40.5,19.2,30.28,North,-999,-999.0,12.0,42,0.00,,,0.00,meteohub,2013-11-20 17:17:00,
2013-11-20 12:22:00,40.6,18.9,30.28,North,-999,-999.0,-999.0,41,0.00,,,0.00,meteohub,2013-11-20 17:22:00,
2013-11-20 12:27:00,41.0,19.2,30.28,North,-999,-999.0,-999.0,41,0.00,,,0.00,meteohub,2013-11-20 17:27:00,
2013-11-20 12:32:00,41.2,18.7,30.28,NNE,32,12.0,-999.0,40,0.00,,,0.00,meteohub,2013-11-20 17:32:00,
2013-11-20 12:37:00,41.4,18.9,30.28,North,-999,-999.0,12.0,40,0.00,,,0.00,meteohub,2013-11-20 17:37:00,
2013-11-20 12:42:00,41.5,19.0,30.25,North,-999,-999.0,12.0,40,0.00,,,0.00,meteohub,2013-11-20 17:42:00,
2013-11-20 12:47:00,41.5,19.0,30.25,North,-999,-999.0,-999.0,40,0.00,,,0.00,meteohub,2013-11-20 17:47:00,
2013-11-20 12:52:00,41.9,19.4,30.25,North,-999,-999.0,-999.0,40,0.00,,,0.00,meteohub,2013-11-20 17:52:00,
2013-11-20 12:57:00,42.4,19.9,30.25,North,-999,-999.0,-999.0,40,0.00,,,0.00,meteohub,2013-11-20 17:57:00,
2013-11-20 13:02:00,42.4,19.9,30.25,North,-999,-999.0,-999.0,40,0.00,,,0.00,meteohub,2013-11-20 18:02:00,
2013-11-20 13:07:00,42.8,20.1,30.25,North,-999,-999.0,-999.0,40,0.00,,,0.00,meteohub,2013-11-20 18:07:00,
2013-11-20 13:12:00,43.0,19.8,30.25,North,-999,-999.0,-999.0,39,0.00,,,0.00,meteohub,2013-11-20 18:12:00,
2013-11-20 13:17:00,43.3,20.1,30.25,North,-999,-999.0,-999.0,39,0.00,,,0.00,meteohub,2013-11-20 18:17:00,
2013-11-20 13:22:00,43.5,20.3,30.25,North,-999,-999.0,-999.0,39,0.00,,,0.00,meteohub,2013-11-20 18:22:00,
2013-11-20 13:27:00,43.7,20.5,30.22,North,-999,-999.0,-999.0,39,0.00,,,0.00,meteohub,2013-11-20 18:27:00,
2013-11-20 13:32:00,43.7,19.8,30.22,North,-999,-999.0,-999.0,38,0.00,,,0.00,meteohub,2013-11-20 18:32:00,
2013-11-20 13:37:00,43.9,20.7,30.22,North,-999,-999.0,-999.0,39,0.00,,,0.00,meteohub,2013-11-20 18:37:00,
2013-11-20 13:42:00,43.7,19.8,30.22,North,-999,-999.0,-999.0,38,0.00,,,0.00,meteohub,2013-11-20 18:42:00,
2013-11-20 13:47:00,44.2,20.3,30.22,North,-999,-999.0,-999.0,38,0.00,,,0.00,meteohub,2013-11-20 18:47:00,
2013-11-20 13:52:00,44.2,20.3,30.22,North,-999,-999.0,-999.0,38,0.00,,,0.00,meteohub,2013-11-20 18:52:00,
2013-11-20 13:57:00,44.8,20.8,30.22,North,-999,-999.0,-999.0,38,0.00,,,0.00,meteohub,2013-11-20 18:57:00,
2013-11-20 14:02:00,44.6,20.7,30.22,North,-999,-999.0,-999.0,38,0.00,,,0.00,meteohub,2013-11-20 19:02:00,
2013-11-20 14:07:00,45.0,21.0,30.22,North,-999,-999.0,-999.0,38,0.00,,,0.00,meteohub,2013-11-20 19:07:00,
2013-11-20 14:12:00,44.8,20.8,30.25,North,-999,-999.0,-999.0,38,0.00,,,0.00,meteohub,2013-11-20 19:12:00,
2013-11-20 14:17:00,45.0,21.0,30.25,North,-999,-999.0,-999.0,38,0.00,,,0.00,meteohub,2013-11-20 19:17:00,
2013-11-20 14:22:00,44.6,19.9,30.25,North,-999,-999.0,-999.0,37,0.00,,,0.00,meteohub,2013-11-20 19:22:00,
2013-11-20 14:27:00,44.8,20.8,30.22,North,-999,-999.0,-999.0,38,0.00,,,0.00,meteohub,2013-11-20 19:27:00,
2013-11-20 14:32:00,45.0,20.3,30.22,North,-999,-999.0,-999.0,37,0.00,,,0.00,meteohub,2013-11-20 19:32:00,
2013-11-20 14:42:00,44.6,19.9,30.22,North,-999,-999.0,-999.0,37,0.00,,,0.00,meteohub,2013-11-20 19:42:00,
2013-11-20 14:47:00,44.6,19.9,30.22,NW,325,4.0,-999.0,37,0.00,,,0.00,meteohub,2013-11-20 19:47:00,
2013-11-20 14:52:00,44.8,20.1,30.22,NW,325,4.0,4.0,37,0.00,,,0.00,meteohub,2013-11-20 19:52:00,
2013-11-20 14:57:00,44.6,19.9,30.19,North,-999,-999.0,4.0,37,0.00,,,0.00,meteohub,2013-11-20 19:57:00,
2013-11-20 15:02:00,44.8,20.1,30.19,North,-999,-999.0,4.0,37,0.00,,,0.00,meteohub,2013-11-20 20:02:00,
2013-11-20 15:07:00,44.6,19.9,30.19,North,-999,-999.0,-999.0,37,0.00,,,0.00,meteohub,2013-11-20 20:07:00,
2013-11-20 15:12:00,44.6,19.9,30.19,North,-999,-999.0,-999.0,37,0.00,,,0.00,meteohub,2013-11-20 20:12:00,
2013-11-20 15:17:00,44.6,19.9,30.19,NNW,348,5.0,-999.0,37,0.00,,,0.00,meteohub,2013-11-20 20:17:00,
2013-11-20 15:22:00,44.6,19.9,30.19,North,-999,-999.0,5.0,37,0.00,,,0.00,meteohub,2013-11-20 20:22:00,
2013-11-20 15:27:00,44.4,20.5,30.22,North,-999,-999.0,5.0,38,0.00,,,0.00,meteohub,2013-11-20 20:27:00,
2013-11-20 15:32:00,44.4,20.5,30.22,North,-999,-999.0,-999.0,38,0.00,,,0.00,meteohub,2013-11-20 20:32:00,
2013-11-20 15:37:00,44.2,20.3,30.22,North,-999,-999.0,-999.0,38,0.00,,,0.00,meteohub,2013-11-20 20:37:00,
2013-11-20 15:42:00,44.1,20.1,30.22,North,-999,-999.0,-999.0,38,0.00,,,0.00,meteohub,2013-11-20 20:42:00,
2013-11-20 15:47:00,44.1,19.6,30.22,North,-999,-999.0,-999.0,37,0.00,,,0.00,meteohub,2013-11-20 20:47:00,
2013-11-20 15:52:00,43.9,18.7,30.22,North,-999,-999.0,-999.0,36,0.00,,,0.00,meteohub,2013-11-20 20:52:00,
2013-11-20 15:57:00,44.1,20.1,30.22,NNW,348,5.0,5.0,38,0.00,,,0.00,meteohub,2013-11-20 20:57:00,
2013-11-20 16:02:00,43.9,19.9,30.22,North,-999,-999.0,5.0,38,0.00,,,0.00,meteohub,2013-11-20 21:02:00,
2013-11-20 16:07:00,43.9,19.9,30.22,North,-999,-999.0,5.0,38,0.00,,,0.00,meteohub,2013-11-20 21:07:00,
2013-11-20 16:12:00,43.2,19.4,30.25,North,-999,-999.0,-999.0,38,0.00,,,0.00,meteohub,2013-11-20 21:12:00,
2013-11-20 16:17:00,43.3,19.6,30.25,North,-999,-999.0,-999.0,38,0.00,,,0.00,meteohub,2013-11-20 21:17:00,
2013-11-20 16:27:00,43.0,19.2,30.25,North,-999,-999.0,-999.0,38,0.00,,,0.00,meteohub,2013-11-20 21:27:00,
2013-11-20 16:32:00,42.8,19.0,30.25,North,-999,-999.0,-999.0,38,0.00,,,0.00,meteohub,2013-11-20 21:32:00,
2013-11-20 16:37:00,42.8,19.0,30.25,North,-999,-999.0,-999.0,38,0.00,,,0.00,meteohub,2013-11-20 21:37:00,
2013-11-20 16:42:00,42.6,18.9,30.25,North,-999,-999.0,-999.0,38,0.00,,,0.00,meteohub,2013-11-20 21:42:00,
2013-11-20 16:47:00,42.4,18.7,30.25,North,-999,-999.0,-999.0,38,0.00,,,0.00,meteohub,2013-11-20 21:47:00,
2013-11-20 16:52:00,42.1,18.3,30.25,North,-999,-999.0,-999.0,38,0.00,,,0.00,meteohub,2013-11-20 21:52:00,
2013-11-20 16:57:00,41.7,18.0,30.25,North,-999,-999.0,-999.0,38,0.00,,,0.00,meteohub,2013-11-20 21:57:00,
2013-11-20 17:02:00,41.7,18.0,30.25,North,-999,-999.0,-999.0,38,0.00,,,0.00,meteohub,2013-11-20 22:02:00,
2013-11-20 17:07:00,41.4,17.8,30.25,NW,325,6.0,-999.0,38,0.00,,,0.00,meteohub,2013-11-20 22:07:00,
2013-11-20 17:12:00,40.8,17.8,30.25,NW,325,6.0,6.0,39,0.00,,,0.00,meteohub,2013-11-20 22:12:00,
2013-11-20 17:17:00,40.6,17.6,30.25,North,-999,-999.0,6.0,39,0.00,,,0.00,meteohub,2013-11-20 22:17:00,
2013-11-20 17:22:00,40.3,17.4,30.25,North,-999,-999.0,6.0,39,0.00,,,0.00,meteohub,2013-11-20 22:22:00,
2013-11-20 17:27:00,40.1,17.2,30.25,North,-999,-999.0,-999.0,39,0.00,,,0.00,meteohub,2013-11-20 22:27:00,
2013-11-20 17:32:00,39.4,16.5,30.25,North,-999,-999.0,-999.0,39,0.00,,,0.00,meteohub,2013-11-20 22:32:00,
2013-11-20 17:37:00,39.4,16.5,30.25,North,-999,-999.0,-999.0,39,0.00,,,0.00,meteohub,2013-11-20 22:37:00,
2013-11-20 17:42:00,38.8,16.0,30.25,North,-999,-999.0,-999.0,39,0.00,,,0.00,meteohub,2013-11-20 22:42:00,
2013-11-20 17:47:00,38.5,15.8,30.25,North,-999,-999.0,-999.0,39,0.00,,,0.00,meteohub,2013-11-20 22:47:00,
2013-11-20 17:52:00,39.0,16.2,30.25,North,-999,-999.0,-999.0,39,0.00,,,0.00,meteohub,2013-11-20 22:52:00,
2013-11-20 17:57:00,38.5,15.8,30.25,North,-999,-999.0,-999.0,39,0.00,,,0.00,meteohub,2013-11-20 22:57:00,
2013-11-20 18:02:00,37.9,15.3,30.25,North,-999,-999.0,-999.0,39,0.00,,,0.00,meteohub,2013-11-20 23:02:00,
2013-11-20 18:07:00,38.1,16.0,30.25,North,-999,-999.0,-999.0,40,0.00,,,0.00,meteohub,2013-11-20 23:07:00,
2013-11-20 18:12:00,37.4,15.3,30.28,ENE,78,5.0,-999.0,40,0.00,,,0.00,meteohub,2013-11-20 23:12:00,
2013-11-20 18:17:00,37.0,15.1,30.28,North,-999,-999.0,5.0,40,0.00,,,0.00,meteohub,2013-11-20 23:17:00,
2013-11-20 18:22:00,36.9,14.9,30.28,North,-999,-999.0,5.0,40,0.00,,,0.00,meteohub,2013-11-20 23:22:00,
2013-11-20 18:27:00,36.9,14.9,30.28,NE,55,2.0,5.0,40,0.00,,,0.00,meteohub,2013-11-20 23:27:00,
2013-11-20 18:32:00,36.7,14.7,30.28,NE,55,2.0,4.0,40,0.00,,,0.00,meteohub,2013-11-20 23:32:00,
2013-11-20 18:37:00,37.0,15.1,30.28,North,-999,-999.0,4.0,40,0.00,,,0.00,meteohub,2013-11-20 23:37:00,
2013-11-20 18:42:00,36.5,14.5,30.28,North,-999,-999.0,2.0,40,0.00,,,0.00,meteohub,2013-11-20 23:42:00,
2013-11-20 18:47:00,36.7,14.7,30.28,North,-999,-999.0,-999.0,40,0.00,,,0.00,meteohub,2013-11-20 23:47:00,
2013-11-20 18:52:00,37.2,15.3,30.28,North,-999,-999.0,-999.0,40,0.00,,,0.00,meteohub,2013-11-20 23:52:00,
2013-11-20 18:57:00,36.5,14.5,30.28,North,-999,-999.0,-999.0,40,0.00,,,0.00,meteohub,2013-11-20 23:57:00,
2013-11-20 19:02:00,36.7,14.7,30.28,North,-999,-999.0,-999.0,40,0.00,,,0.00,meteohub,2013-11-21 00:02:00,
2013-11-20 19:07:00,36.7,14.7,30.28,North,-999,-999.0,-999.0,40,0.00,,,0.00,meteohub,2013-11-21 00:07:00,
2013-11-20 19:12:00,36.1,14.2,30.28,North,-999,-999.0,-999.0,40,0.00,,,0.00,meteohub,2013-11-21 00:12:00,
2013-11-20 19:17:00,36.0,14.5,30.28,North,-999,-999.0,-999.0,41,0.00,,,0.00,meteohub,2013-11-21 00:17:00,
2013-11-20 19:22:00,36.1,14.7,30.28,North,-999,-999.0,-999.0,41,0.00,,,0.00,meteohub,2013-11-21 00:22:00,
2013-11-20 19:27:00,35.8,14.4,30.28,North,-999,-999.0,-999.0,41,0.00,,,0.00,meteohub,2013-11-21 00:27:00,
2013-11-20 19:32:00,36.0,14.5,30.28,North,-999,-999.0,-999.0,41,0.00,,,0.00,meteohub,2013-11-21 00:32:00,
2013-11-20 19:37:00,35.4,14.2,30.28,North,-999,-999.0,-999.0,41,0.00,,,0.00,meteohub,2013-11-21 00:37:00,
2013-11-20 19:42:00,35.1,13.8,30.28,North,-999,-999.0,-999.0,41,0.00,,,0.00,meteohub,2013-11-21 00:42:00,
2013-11-20 19:47:00,35.4,14.2,30.28,North,-999,-999.0,-999.0,41,0.00,,,0.00,meteohub,2013-11-21 00:47:00,
2013-11-20 19:52:00,35.1,13.8,30.28,North,-999,-999.0,-999.0,41,0.00,,,0.00,meteohub,2013-11-21 00:52:00,
2013-11-20 19:57:00,34.7,14.0,30.28,North,-999,-999.0,-999.0,42,0.00,,,0.00,meteohub,2013-11-21 00:57:00,
2013-11-20 20:02:00,34.3,13.6,30.28,North,-999,-999.0,-999.0,42,0.00,,,0.00,meteohub,2013-11-21 01:02:00,
2013-11-20 20:07:00,34.0,13.3,30.28,North,-999,-999.0,-999.0,42,0.00,,,0.00,meteohub,2013-11-21 01:07:00,
2013-11-20 20:12:00,34.0,13.3,30.25,North,-999,-999.0,-999.0,42,0.00,,,0.00,meteohub,2013-11-21 01:12:00,
2013-11-20 20:17:00,34.5,13.8,30.25,North,-999,-999.0,-999.0,42,0.00,,,0.00,meteohub,2013-11-21 01:17:00,
2013-11-20 20:22:00,34.5,13.8,30.25,North,-999,-999.0,-999.0,42,0.00,,,0.00,meteohub,2013-11-21 01:22:00,
2013-11-20 20:27:00,34.2,13.5,30.28,North,-999,-999.0,-999.0,42,0.00,,,0.00,meteohub,2013-11-21 01:27:00,
2013-11-20 20:32:00,33.6,13.6,30.28,North,-999,-999.0,-999.0,43,0.00,,,0.00,meteohub,2013-11-21 01:32:00,
2013-11-20 20:37:00,33.6,13.6,30.28,East,100,5.0,-999.0,43,0.00,,,0.00,meteohub,2013-11-21 01:37:00,
2013-11-20 20:42:00,33.6,13.6,30.28,East,100,5.0,5.0,43,0.00,,,0.00,meteohub,2013-11-21 01:42:00,
2013-11-20 20:47:00,33.3,13.3,30.28,ENE,78,7.0,7.0,43,0.00,,,0.00,meteohub,2013-11-21 01:47:00,
2013-11-20 20:52:00,33.3,13.3,30.28,North,-999,-999.0,7.0,43,0.00,,,0.00,meteohub,2013-11-21 01:52:00,
2013-11-20 20:57:00,33.1,13.1,30.28,North,-999,-999.0,7.0,43,0.00,,,0.00,meteohub,2013-11-21 01:57:00,
2013-11-20 21:02:00,33.4,13.5,30.28,North,-999,-999.0,-999.0,43,0.00,,,0.00,meteohub,2013-11-21 02:02:00,
2013-11-20 21:07:00,33.3,13.3,30.28,North,-999,-999.0,-999.0,43,0.00,,,0.00,meteohub,2013-11-21 02:07:00,
2013-11-20 21:12:00,33.1,13.6,30.31,North,-999,-999.0,-999.0,44,0.00,,,0.00,meteohub,2013-11-21 02:12:00,
2013-11-20 21:17:00,33.1,13.6,30.31,North,-999,-999.0,-999.0,44,0.00,,,0.00,meteohub,2013-11-21 02:17:00,
2013-11-20 21:22:00,32.9,13.5,30.31,North,-999,-999.0,-999.0,44,0.00,,,0.00,meteohub,2013-11-21 02:22:00,
2013-11-20 21:27:00,32.7,13.3,30.28,North,-999,-999.0,-999.0,44,0.00,,,0.00,meteohub,2013-11-21 02:27:00,
2013-11-20 21:32:00,32.5,13.1,30.28,North,-999,-999.0,-999.0,44,0.00,,,0.00,meteohub,2013-11-21 02:32:00,
2013-11-20 21:37:00,32.4,12.9,30.28,North,-999,-999.0,-999.0,44,0.00,,,0.00,meteohub,2013-11-21 02:37:00,
2013-11-20 21:42:00,32.2,12.7,30.31,North,-999,-999.0,-999.0,44,0.00,,,0.00,meteohub,2013-11-21 02:42:00,
2013-11-20 21:47:00,32.2,13.3,30.31,North,-999,-999.0,-999.0,45,0.00,,,0.00,meteohub,2013-11-21 02:47:00,
2013-11-20 21:52:00,32.0,13.1,30.31,North,-999,-999.0,-999.0,45,0.00,,,0.00,meteohub,2013-11-21 02:52:00,
2013-11-20 21:57:00,32.0,13.1,30.31,North,-999,-999.0,-999.0,45,0.00,,,0.00,meteohub,2013-11-21 02:57:00,
2013-11-20 22:02:00,31.8,12.9,30.31,North,-999,-999.0,-999.0,45,0.00,,,0.00,meteohub,2013-11-21 03:02:00,
2013-11-20 22:07:00,31.6,12.7,30.31,North,-999,-999.0,-999.0,45,0.00,,,0.00,meteohub,2013-11-21 03:07:00,
2013-11-20 22:12:00,31.5,13.1,30.31,SSE,168,0.0,0.0,46,0.00,,,0.00,meteohub,2013-11-21 03:12:00,
2013-11-20 22:17:00,31.5,13.1,30.31,North,-999,-999.0,0.0,46,0.00,,,0.00,meteohub,2013-11-21 03:17:00,
2013-11-20 22:22:00,31.6,13.3,30.31,North,-999,-999.0,0.0,46,0.00,,,0.00,meteohub,2013-11-21 03:22:00,
2013-11-20 22:27:00,31.3,12.9,30.31,North,-999,-999.0,-999.0,46,0.00,,,0.00,meteohub,2013-11-21 03:27:00,
2013-11-20 22:32:00,30.7,13.5,30.31,North,-999,-999.0,-999.0,48,0.00,,,0.00,meteohub,2013-11-21 03:32:00,
2013-11-20 22:37:00,30.9,14.0,30.31,North,-999,-999.0,-999.0,49,0.00,,,0.00,meteohub,2013-11-21 03:37:00,
2013-11-20 22:42:00,30.7,13.5,30.31,North,-999,-999.0,-999.0,48,0.00,,,0.00,meteohub,2013-11-21 03:42:00,
2013-11-20 22:47:00,30.4,13.5,30.31,North,-999,-999.0,-999.0,49,0.00,,,0.00,meteohub,2013-11-21 03:47:00,
2013-11-20 22:52:00,30.2,13.3,30.31,WNW,302,0.0,0.0,49,0.00,,,0.00,meteohub,2013-11-21 03:52:00,
2013-11-20 22:57:00,30.2,13.8,30.31,North,-999,-999.0,0.0,50,0.00,,,0.00,meteohub,2013-11-21 03:57:00,
2013-11-20 23:02:00,30.0,14.2,30.31,North,-999,-999.0,0.0,51,0.00,,,0.00,meteohub,2013-11-21 04:02:00,
2013-11-20 23:07:00,29.8,14.0,30.31,North,-999,-999.0,-999.0,51,0.00,,,0.00,meteohub,2013-11-21 04:07:00,
2013-11-20 23:12:00,29.8,14.0,30.31,North,-999,-999.0,-999.0,51,0.00,,,0.00,meteohub,2013-11-21 04:12:00,
2013-11-20 23:17:00,29.7,13.8,30.31,North,-999,-999.0,-999.0,51,0.00,,,0.00,meteohub,2013-11-21 04:17:00,
2013-11-20 23:22:00,29.7,13.8,30.31,North,-999,-999.0,-999.0,51,0.00,,,0.00,meteohub,2013-11-21 04:22:00,
2013-11-20 23:27:00,29.5,13.6,30.31,North,-999,-999.0,-999.0,51,0.00,,,0.00,meteohub,2013-11-21 04:27:00,
2013-11-20 23:32:00,29.7,13.8,30.31,North,-999,-999.0,-999.0,51,0.00,,,0.00,meteohub,2013-11-21 04:32:00,
2013-11-20 23:37:00,29.5,13.6,30.31,North,-999,-999.0,-999.0,51,0.00,,,0.00,meteohub,2013-11-21 04:37:00,
2013-11-20 23:42:00,29.5,13.6,30.34,North,10,0.0,0.0,51,0.00,,,0.00,meteohub,2013-11-21 04:42:00,
2013-11-20 23:47:00,29.5,14.0,30.34,North,-999,-999.0,0.0,52,0.00,,,0.00,meteohub,2013-11-21 04:47:00,
2013-11-20 23:52:00,29.7,14.2,30.34,North,-999,-999.0,0.0,52,0.00,,,0.00,meteohub,2013-11-21 04:52:00,
2013-11-20 23:57:00,29.8,14.4,30.34,North,-999,-999.0,-999.0,52,0.00,,,0.00,meteohub,2013-11-21 04:57:00,